Roscoe, MT

11:19 PM MST on December 03, 2016 (GMT -0700)
Willow Creek Road | | Change Station

Elev 5102 ft 45.27 °N, 109.26 °W | Updated 2 seconds ago

Mostly Cloudy
Mostly Cloudy
24.1 °F
Feels Like 24 °F
N
3.0
Wind Variable Wind from ESE

Today
High -- | Low -- °F
--% Chance of Precip.
Yesterday
High -- | Low -- °F
Precip. -- in
Pressure 30.02 in
Visibility 10.0 miles
Clouds Scattered Clouds 6000 ft
Mostly Cloudy 8000 ft
Windchill 24 °F
Dew Point 11 °F
Humidity 58%
Rainfall 0.00 in
Snow Depth Not available.
7:40 AM 4:36 PM
Waxing Crescent, 20% visible
METAR KLVM 040553Z AUTO 24022G29KT 10SM SCT060 BKN080 01/M10 A2995 RMK AO2 PK WND 23034/0514 SLP165 T00111100 10028 20006 51002
Pressure 30.02 in
Visibility 10.0 miles
Clouds Scattered Clouds 6000 ft
Mostly Cloudy 8000 ft
Windchill 24 °F
Dew Point 11 °F
Humidity 58%
Rainfall 0.00 in
Snow Depth Not available.
7:40 AM 4:36 PM
Waxing Crescent, 20% visible
METAR KLVM 040553Z AUTO 24022G29KT 10SM SCT060 BKN080 01/M10 A2995 RMK AO2 PK WND 23034/0514 SLP165 T00111100 10028 20006 51002

10-Day Weather Forecast

Almanac

Astronomy

Dec. 03, 2016 Rise Set
Actual Time
Civil Twilight
Nautical Twilight
Astronomical Twilight
Moon
Length of Visible Light
Length of Day
Tomorrow will be .
, % of the Moon is Illuminated

Today's Extremes

State Highs State Lows

Community

WunderPhotos

Upload Photos

1,955,586 photos uploaded!

WunderBlog® & News

Nearby

Air Quality

  Air Quality AQ Index Pollutant
Not available.

Snow Depth

Station Depth Elevation

Earthquake Activity

City Distance Mag. Time & Date
Minimum magnitude displayed is 2.5.

Coastal Water Temperatures

Place Temperature

Stations

Nearby Weather Stations

Station Location Temp. Windchill Dew Point Humidity Wind Precip. Elev Updated Type
                   

Watches & Warnings

There are currently no watches in effect.